createdAt,value
2023-02-16T00:01:19.892Z,6.10
2023-02-16T00:03:47.458Z,5.38
2023-02-16T00:06:16.158Z,6.07
2023-02-16T00:08:44.256Z,8.38
2023-02-16T00:11:46.167Z,4.18
2023-02-16T00:14:13.963Z,7.22
2023-02-16T00:16:41.167Z,5.70
2023-02-16T00:19:24.410Z,6.50
2023-02-16T00:21:53.156Z,5.45
2023-02-16T00:24:20.503Z,6.10
2023-02-16T00:26:48.073Z,6.20
2023-02-16T00:29:19.094Z,3.88
2023-02-16T00:31:46.351Z,5.70
2023-02-16T00:34:33.508Z,4.63
2023-02-16T00:37:02.032Z,5.55
2023-02-16T00:39:29.519Z,4.75
2023-02-16T00:41:58.554Z,4.38
2023-02-16T00:44:36.588Z,4.53
2023-02-16T00:47:24.095Z,5.00
2023-02-16T00:49:52.424Z,6.35
2023-02-16T00:52:31.782Z,7.90
2023-02-16T00:54:59.808Z,7.00
2023-02-16T00:57:28.449Z,5.07
2023-02-16T01:00:04.082Z,5.07
2023-02-16T01:02:31.202Z,6.18
2023-02-16T01:04:58.348Z,8.05
2023-02-16T01:07:44.377Z,6.00
2023-02-16T01:10:44.354Z,6.82
2023-02-16T01:13:12.489Z,5.75
2023-02-16T01:15:39.660Z,8.35
2023-02-16T01:18:07.168Z,10.18
2023-02-16T01:20:37.881Z,7.55
2023-02-16T01:23:05.021Z,5.65
2023-02-16T01:25:32.231Z,5.93
2023-02-16T01:27:59.435Z,8.40
2023-02-16T01:30:26.857Z,6.18
2023-02-16T01:32:55.322Z,7.55
2023-02-16T01:35:24.413Z,5.35
2023-02-16T01:37:51.779Z,6.00
2023-02-16T01:40:28.152Z,7.53
2023-02-16T01:42:58.000Z,6.20
2023-02-16T01:45:35.266Z,6.80
2023-02-16T01:48:04.242Z,5.53
2023-02-16T01:50:51.644Z,5.65
2023-02-16T01:53:54.357Z,6.30
2023-02-16T01:56:36.520Z,6.75
2023-02-16T01:59:09.372Z,7.15
2023-02-16T02:01:36.792Z,7.15
2023-02-16T02:04:30.196Z,7.95
2023-02-16T02:06:57.319Z,5.97
2023-02-16T02:09:27.501Z,7.35
2023-02-16T02:12:13.379Z,5.00
2023-02-16T02:14:41.023Z,6.95
2023-02-16T02:17:10.221Z,14.27
2023-02-16T02:20:00.463Z,6.75
2023-02-16T02:22:59.164Z,6.15
2023-02-16T02:25:26.298Z,6.38
2023-02-16T02:27:53.366Z,5.63
2023-02-16T02:30:33.012Z,8.02
2023-02-16T02:33:19.008Z,8.55
2023-02-16T02:35:59.240Z,5.20
2023-02-16T02:38:31.229Z,4.90
2023-02-16T02:41:04.370Z,6.97
2023-02-16T02:43:37.626Z,7.35
2023-02-16T02:46:09.481Z,5.72
2023-02-16T02:48:36.592Z,8.20
2023-02-16T02:51:28.575Z,7.43
2023-02-16T02:54:23.164Z,5.60
2023-02-16T02:57:29.422Z,5.60
2023-02-16T03:00:25.161Z,8.77
2023-02-16T03:02:53.982Z,8.02
2023-02-16T03:05:23.082Z,7.20
2023-02-16T03:07:53.261Z,6.22
2023-02-16T03:10:41.513Z,6.65
2023-02-16T03:13:12.597Z,6.28
2023-02-16T03:15:40.612Z,7.10
2023-02-16T03:18:28.256Z,5.53
2023-02-16T03:21:14.742Z,8.38
2023-02-16T03:24:02.005Z,8.20
2023-02-16T03:26:48.957Z,7.78
2023-02-16T03:29:18.321Z,7.20
2023-02-16T03:31:46.897Z,6.75
2023-02-16T03:34:14.188Z,7.60
2023-02-16T03:36:42.599Z,9.70
2023-02-16T03:39:10.317Z,11.55
2023-02-16T03:41:43.209Z,10.57
2023-02-16T03:44:10.780Z,11.57
2023-02-16T03:46:37.899Z,9.02
2023-02-16T03:49:05.111Z,11.60
2023-02-16T03:51:32.202Z,13.63
2023-02-16T03:53:59.308Z,10.80
2023-02-16T03:56:26.453Z,11.10
2023-02-16T03:58:53.693Z,13.45
2023-02-16T04:01:20.844Z,12.50
2023-02-16T04:03:48.078Z,16.70
2023-02-16T04:06:15.454Z,15.27
2023-02-16T04:08:42.623Z,13.10
2023-02-16T04:11:28.504Z,13.05
2023-02-16T04:13:55.588Z,14.75
2023-02-16T04:16:22.849Z,12.38
2023-02-16T04:18:50.031Z,11.00
2023-02-16T04:21:17.113Z,11.85
2023-02-16T04:23:44.216Z,13.40
2023-02-16T04:26:11.374Z,11.77
2023-02-16T04:28:38.499Z,11.63
2023-02-16T04:31:06.019Z,10.73
2023-02-16T04:33:33.610Z,14.82
2023-02-16T04:36:00.756Z,11.80
2023-02-16T04:38:27.835Z,11.15
2023-02-16T04:40:54.996Z,11.18
2023-02-16T04:43:22.105Z,14.07
2023-02-16T04:45:49.252Z,12.60
2023-02-16T04:48:16.448Z,14.60
2023-02-16T04:50:43.546Z,12.10
2023-02-16T04:53:10.684Z,13.25
2023-02-16T04:55:37.834Z,13.38
2023-02-16T04:58:05.020Z,14.80
2023-02-16T05:00:32.136Z,11.30
2023-02-16T05:02:59.322Z,12.20
2023-02-16T05:05:26.442Z,12.80
2023-02-16T05:07:53.557Z,15.40
2023-02-16T05:10:20.720Z,16.63
2023-02-16T05:13:06.398Z,15.60
2023-02-16T05:15:33.584Z,17.17
2023-02-16T05:18:00.739Z,15.85
2023-02-16T05:20:47.948Z,18.50
2023-02-16T05:23:15.036Z,17.45
2023-02-16T05:25:42.127Z,16.10
2023-02-16T05:28:09.362Z,12.20
2023-02-16T05:30:36.513Z,12.95
2023-02-16T05:33:03.638Z,15.25
2023-02-16T05:35:30.929Z,16.50
2023-02-16T05:37:58.038Z,16.35
2023-02-16T05:40:25.124Z,18.02
2023-02-16T05:42:55.731Z,14.80
2023-02-16T05:45:22.876Z,17.63
2023-02-16T05:47:50.020Z,16.63
2023-02-16T05:50:17.210Z,17.58
2023-02-16T05:52:44.314Z,19.65
2023-02-16T05:55:11.411Z,16.38
2023-02-16T05:57:38.601Z,17.63
2023-02-16T06:00:07.480Z,17.23
2023-02-16T06:02:34.837Z,20.60
2023-02-16T06:05:01.989Z,14.32
2023-02-16T06:07:29.080Z,16.50
2023-02-16T06:09:56.300Z,17.52
2023-02-16T06:12:23.471Z,16.15
2023-02-16T06:14:50.540Z,14.60
2023-02-16T06:17:17.670Z,16.42
2023-02-16T06:19:44.823Z,15.32
2023-02-16T06:22:11.928Z,16.33
2023-02-16T06:24:39.908Z,17.80
2023-02-16T06:27:07.197Z,15.13
2023-02-16T06:29:34.381Z,15.70
2023-02-16T06:32:01.592Z,18.02
2023-02-16T06:34:28.789Z,14.70
2023-02-16T06:36:55.889Z,19.02
2023-02-16T06:39:22.999Z,18.60
2023-02-16T06:41:50.712Z,16.05
2023-02-16T06:44:17.966Z,18.02
2023-02-16T06:46:46.230Z,15.73
2023-02-16T06:49:13.845Z,14.93
2023-02-16T06:51:41.347Z,15.85
2023-02-16T06:54:08.552Z,20.58
2023-02-16T06:56:37.767Z,18.10
2023-02-16T06:59:05.257Z,15.60
2023-02-16T07:01:32.625Z,17.95
2023-02-16T07:03:59.770Z,15.93
2023-02-16T07:06:27.892Z,18.42
2023-02-16T07:08:55.289Z,16.42
2023-02-16T07:11:22.692Z,17.73
2023-02-16T07:13:50.218Z,17.15
2023-02-16T07:16:17.430Z,24.52
2023-02-16T07:18:45.058Z,20.20
2023-02-16T07:21:12.451Z,18.10
2023-02-16T07:23:39.621Z,18.75
2023-02-16T07:26:06.785Z,19.90
2023-02-16T07:28:34.052Z,19.83
2023-02-16T07:31:07.040Z,26.08
2023-02-16T07:33:34.752Z,20.45
2023-02-16T07:36:01.869Z,19.60
2023-02-16T07:38:30.824Z,24.00
2023-02-16T07:40:58.373Z,24.52
2023-02-16T07:43:26.303Z,22.70
2023-02-16T07:45:53.795Z,20.48
2023-02-16T07:48:20.931Z,21.77
2023-02-16T07:50:48.042Z,19.88
2023-02-16T07:53:15.246Z,18.63
2023-02-16T07:55:43.470Z,16.95
2023-02-16T07:58:10.707Z,15.95
2023-02-16T08:00:37.918Z,15.35
2023-02-16T08:03:05.134Z,15.18
2023-02-16T08:05:32.310Z,21.67
2023-02-16T08:07:59.467Z,16.48
2023-02-16T08:10:26.560Z,14.98
2023-02-16T08:12:53.699Z,14.73
2023-02-16T08:15:20.864Z,21.60
2023-02-16T08:17:47.982Z,20.88
2023-02-16T08:20:15.283Z,17.05
2023-02-16T08:22:42.453Z,18.45
2023-02-16T08:25:09.594Z,23.58
2023-02-16T08:27:36.756Z,16.20
2023-02-16T08:30:04.431Z,20.33
2023-02-16T08:32:31.634Z,19.77
2023-02-16T08:34:58.784Z,22.85
2023-02-16T08:37:26.257Z,19.08
2023-02-16T08:39:53.816Z,23.60
2023-02-16T08:42:21.277Z,17.10
2023-02-16T08:44:48.576Z,15.82
2023-02-16T08:47:16.857Z,17.65
2023-02-16T08:49:44.517Z,12.82
2023-02-16T08:52:12.416Z,16.92
2023-02-16T08:54:39.829Z,14.15
2023-02-16T08:57:06.933Z,12.55
2023-02-16T08:59:34.977Z,15.15
2023-02-16T09:02:02.236Z,17.85
2023-02-16T09:04:32.187Z,16.80
2023-02-16T09:06:59.681Z,11.70
2023-02-16T09:09:27.475Z,12.23
2023-02-16T09:11:54.890Z,12.20
2023-02-16T09:14:23.120Z,11.98
2023-02-16T09:16:50.444Z,15.77
2023-02-16T09:19:19.366Z,13.68
2023-02-16T09:21:47.429Z,15.77
2023-02-16T09:24:15.981Z,13.20
2023-02-16T09:26:44.541Z,16.88
2023-02-16T09:29:12.583Z,19.48
2023-02-16T09:31:40.354Z,19.85
2023-02-16T09:34:09.328Z,17.10
2023-02-16T09:36:38.475Z,16.30
2023-02-16T09:39:05.635Z,12.48
2023-02-16T09:41:35.708Z,15.88
2023-02-16T09:44:21.821Z,12.23
2023-02-16T09:46:50.489Z,16.92
2023-02-16T09:49:30.704Z,16.05
2023-02-16T09:52:03.256Z,12.85
2023-02-16T09:54:35.979Z,13.05
2023-02-16T09:57:11.200Z,12.38
2023-02-16T09:59:41.207Z,12.27
2023-02-16T10:02:29.499Z,12.70
2023-02-16T10:05:08.588Z,11.45
2023-02-16T10:07:39.289Z,14.13
2023-02-16T10:10:07.566Z,12.63
2023-02-16T10:12:39.639Z,13.15
2023-02-16T10:15:09.952Z,17.27
2023-02-16T10:17:37.731Z,14.67
2023-02-16T10:20:14.189Z,13.60
2023-02-16T10:23:04.109Z,15.57
2023-02-16T10:25:49.943Z,16.48
2023-02-16T10:28:20.809Z,16.88
2023-02-16T10:30:59.039Z,15.25
2023-02-16T10:33:46.089Z,17.67
2023-02-16T10:36:20.700Z,14.80
2023-02-16T10:39:23.222Z,15.90
2023-02-16T10:41:55.248Z,14.63
2023-02-16T10:44:41.115Z,12.38
2023-02-16T10:47:13.293Z,16.25
2023-02-16T10:49:40.512Z,16.90
2023-02-16T10:52:08.450Z,13.70
2023-02-16T10:54:36.669Z,19.38
2023-02-16T10:57:05.944Z,14.88
2023-02-16T10:59:38.961Z,17.67
2023-02-16T11:02:24.899Z,13.82
2023-02-16T11:04:54.360Z,15.00
2023-02-16T11:07:28.450Z,13.95
2023-02-16T11:09:57.443Z,13.95
2023-02-16T11:12:27.543Z,22.63
2023-02-16T11:15:03.409Z,13.98
2023-02-16T11:17:32.292Z,13.02
2023-02-16T11:20:06.834Z,16.88
2023-02-16T11:22:38.053Z,14.13
2023-02-16T11:25:20.166Z,15.25
2023-02-16T11:28:01.934Z,11.77
2023-02-16T11:30:32.703Z,12.73
2023-02-16T11:33:04.557Z,11.93
2023-02-16T11:35:33.379Z,12.77
2023-02-16T11:38:01.013Z,15.20
2023-02-16T11:40:30.750Z,13.82
2023-02-16T11:42:59.332Z,12.95
2023-02-16T11:45:31.010Z,16.80
2023-02-16T11:48:08.978Z,14.98
2023-02-16T11:50:40.607Z,12.63
2023-02-16T11:53:11.282Z,14.93
2023-02-16T11:55:49.648Z,18.55
2023-02-16T11:58:21.732Z,14.80
2023-02-16T12:01:08.551Z,15.40
2023-02-16T12:03:51.010Z,14.25
2023-02-16T12:06:20.880Z,12.45
2023-02-16T12:09:05.194Z,14.25
2023-02-16T12:11:32.252Z,14.48
2023-02-16T12:14:18.264Z,12.40
2023-02-16T12:17:11.846Z,20.00
2023-02-16T12:19:44.650Z,19.52
2023-02-16T12:22:14.739Z,16.40
2023-02-16T12:24:48.156Z,13.23
2023-02-16T12:27:47.720Z,16.77
2023-02-16T12:30:30.077Z,21.55
2023-02-16T12:33:00.052Z,15.82
2023-02-16T12:35:32.987Z,13.40
2023-02-16T12:38:03.522Z,17.27
2023-02-16T12:41:09.085Z,16.33
2023-02-16T12:43:36.301Z,17.38
2023-02-16T12:46:23.793Z,16.10
2023-02-16T12:48:51.276Z,18.40
2023-02-16T12:51:20.361Z,17.60
2023-02-16T12:54:02.415Z,18.42
2023-02-16T12:56:32.781Z,14.48
2023-02-16T12:59:20.712Z,15.50
2023-02-16T13:01:48.557Z,18.20
2023-02-16T13:04:21.857Z,15.82
2023-02-16T13:07:02.928Z,16.48
2023-02-16T13:09:36.579Z,18.70
2023-02-16T13:12:25.780Z,12.63
2023-02-16T13:15:02.216Z,14.32
2023-02-16T13:17:33.558Z,13.77
2023-02-16T13:22:47.033Z,19.90
2023-02-16T13:25:22.016Z,15.35
2023-02-16T13:27:55.184Z,16.92
2023-02-16T13:30:26.103Z,19.83
2023-02-16T13:33:14.232Z,15.60
2023-02-16T13:35:41.893Z,17.58
2023-02-16T13:38:21.193Z,13.98
2023-02-16T13:41:06.598Z,14.18
2023-02-16T13:43:36.817Z,16.52
2023-02-16T13:46:07.551Z,14.60
2023-02-16T13:48:34.862Z,17.98
2023-02-16T13:51:04.424Z,21.63
2023-02-16T13:53:37.879Z,14.88
2023-02-16T13:56:13.965Z,15.52
2023-02-16T13:58:41.240Z,16.67
2023-02-16T14:01:27.172Z,15.73
2023-02-16T14:03:54.540Z,12.95
2023-02-16T14:06:34.092Z,15.50
2023-02-16T14:09:13.259Z,14.43
2023-02-16T14:11:55.213Z,15.30
2023-02-16T14:14:46.269Z,18.48
2023-02-16T14:17:16.512Z,14.50
2023-02-16T14:20:02.445Z,17.02
2023-02-16T14:22:48.648Z,14.55
2023-02-16T14:25:24.468Z,15.15
2023-02-16T14:27:53.158Z,16.00
2023-02-16T14:30:32.585Z,14.18
2023-02-16T14:33:02.856Z,16.30
2023-02-16T14:35:31.939Z,15.82
2023-02-16T14:38:00.444Z,19.23
2023-02-16T14:40:36.834Z,18.05
2023-02-16T14:43:05.771Z,18.90
2023-02-16T14:45:50.992Z,19.05
2023-02-16T14:48:29.858Z,15.40
2023-02-16T14:51:12.976Z,17.70
2023-02-16T14:54:00.438Z,14.18
2023-02-16T14:56:37.881Z,15.38
2023-02-16T14:59:21.802Z,15.70
2023-02-16T15:01:49.107Z,14.95
2023-02-16T15:04:28.230Z,22.08
2023-02-16T15:06:57.121Z,23.02
2023-02-16T15:09:31.047Z,17.52
2023-02-16T15:12:22.545Z,16.55
2023-02-16T15:17:26.965Z,16.60
2023-02-16T15:19:56.299Z,20.17
2023-02-16T15:22:25.393Z,18.58
2023-02-16T15:25:03.579Z,17.17
2023-02-16T15:27:32.963Z,14.35
2023-02-16T15:30:20.437Z,17.88
2023-02-16T15:32:55.329Z,18.73
2023-02-16T15:35:24.565Z,19.50
2023-02-16T15:37:59.636Z,22.73
2023-02-16T15:40:29.794Z,16.75
2023-02-16T15:43:00.799Z,16.95
2023-02-16T15:45:38.400Z,16.63
2023-02-16T15:48:34.983Z,19.55
2023-02-16T15:51:07.013Z,20.10
2023-02-16T15:53:36.915Z,17.33
2023-02-16T15:56:16.037Z,18.05
2023-02-16T15:58:43.153Z,16.00
2023-02-16T16:01:10.748Z,18.73
2023-02-16T16:03:37.959Z,13.60
2023-02-16T16:06:06.560Z,18.45
2023-02-16T16:08:34.104Z,15.73
2023-02-16T16:11:01.575Z,22.90
2023-02-16T16:13:30.297Z,15.75
2023-02-16T16:16:07.016Z,15.65
2023-02-16T16:18:47.311Z,18.00
2023-02-16T16:21:16.864Z,17.73
2023-02-16T16:23:53.302Z,17.42
2023-02-16T16:26:22.414Z,17.73
2023-02-16T16:28:49.865Z,18.15
2023-02-16T16:31:18.365Z,20.95
2023-02-16T16:33:52.820Z,19.95
2023-02-16T16:36:20.063Z,22.80
2023-02-16T16:38:48.210Z,22.38
2023-02-16T16:41:26.868Z,21.27
2023-02-16T16:43:55.530Z,24.15
2023-02-16T16:46:25.018Z,24.75
2023-02-16T16:49:00.399Z,24.15
2023-02-16T16:51:31.416Z,24.33
2023-02-16T16:54:04.035Z,22.60
2023-02-16T16:56:32.076Z,25.63
2023-02-16T16:58:59.775Z,24.27
2023-02-16T17:01:28.534Z,19.30
2023-02-16T17:03:55.775Z,23.45
2023-02-16T17:06:23.522Z,20.13
2023-02-16T17:08:50.734Z,24.02
2023-02-16T17:11:28.250Z,21.52
2023-02-16T17:13:56.222Z,24.98
2023-02-16T17:16:30.499Z,23.13
2023-02-16T17:18:57.664Z,23.08
2023-02-16T17:21:24.744Z,24.48
2023-02-16T17:23:53.440Z,24.88
2023-02-16T17:26:21.058Z,24.00
2023-02-16T17:28:48.430Z,26.65
2023-02-16T17:31:15.964Z,20.60
2023-02-16T17:33:43.261Z,22.52
2023-02-16T17:36:13.609Z,20.92
2023-02-16T17:38:40.717Z,15.80
2023-02-16T17:41:07.943Z,24.35
2023-02-16T17:43:35.019Z,20.90
2023-02-16T17:46:06.233Z,20.17
2023-02-16T17:48:33.787Z,23.52
2023-02-16T17:51:00.914Z,22.88
2023-02-16T17:53:28.264Z,22.30
2023-02-16T17:55:56.562Z,35.53
2023-02-16T17:58:24.385Z,30.92
2023-02-16T18:00:52.385Z,24.35
2023-02-16T18:03:19.608Z,23.85
2023-02-16T18:05:47.060Z,25.33
2023-02-16T18:08:14.156Z,25.70
2023-02-16T18:10:45.670Z,20.20
2023-02-16T18:13:13.315Z,21.02
2023-02-16T18:15:41.822Z,24.80
2023-02-16T18:18:09.513Z,20.05
2023-02-16T18:20:36.906Z,17.83
2023-02-16T18:23:04.733Z,19.27
2023-02-16T18:25:32.478Z,20.48
2023-02-16T18:27:59.573Z,21.92
2023-02-16T18:30:26.965Z,22.15
2023-02-16T18:32:54.330Z,21.90
2023-02-16T18:35:21.556Z,19.83
2023-02-16T18:37:48.729Z,22.13
2023-02-16T18:40:17.578Z,20.65
2023-02-16T18:42:44.670Z,23.42
2023-02-16T18:45:12.125Z,22.55
2023-02-16T18:47:39.289Z,23.42
2023-02-16T18:50:06.732Z,21.73
2023-02-16T18:52:33.891Z,25.67
2023-02-16T18:55:01.069Z,23.23
2023-02-16T18:57:28.199Z,19.45
2023-02-16T18:59:55.319Z,22.60
2023-02-16T19:02:22.543Z,20.63
2023-02-16T19:04:49.627Z,22.13
2023-02-16T19:07:16.937Z,18.38
2023-02-16T19:09:44.070Z,19.08
2023-02-16T19:12:11.143Z,18.77
2023-02-16T19:14:38.291Z,20.38
2023-02-16T19:17:05.569Z,22.92
2023-02-16T19:19:33.345Z,18.92
2023-02-16T19:22:00.454Z,22.08
2023-02-16T19:24:27.644Z,20.00
2023-02-16T19:26:54.756Z,21.13
2023-02-16T19:29:21.900Z,20.95
2023-02-16T19:31:49.306Z,20.25
2023-02-16T19:34:17.038Z,25.30
2023-02-16T19:36:44.304Z,22.05
2023-02-16T19:39:12.981Z,21.05
2023-02-16T19:41:41.084Z,19.05
2023-02-16T19:44:08.233Z,19.85
2023-02-16T19:46:35.479Z,19.30
2023-02-16T19:49:02.793Z,21.27
2023-02-16T19:51:30.122Z,23.13
2023-02-16T19:53:57.318Z,21.00
2023-02-16T19:56:25.483Z,21.25
2023-02-16T19:58:52.790Z,26.35
2023-02-16T20:01:24.610Z,21.88
2023-02-16T20:03:52.441Z,27.05
2023-02-16T20:06:24.776Z,23.52
2023-02-16T20:08:52.546Z,24.38
2023-02-16T20:11:20.526Z,27.67
2023-02-16T20:13:48.081Z,25.73
2023-02-16T20:16:16.514Z,25.17
2023-02-16T20:18:43.934Z,24.20
2023-02-16T20:21:18.864Z,26.13
2023-02-16T20:23:46.371Z,26.42
2023-02-16T20:26:15.356Z,20.80
2023-02-16T20:28:42.931Z,24.63
2023-02-16T20:31:11.448Z,28.55
2023-02-16T20:33:38.612Z,26.70
2023-02-16T20:36:06.210Z,27.52
2023-02-16T20:38:33.751Z,27.13
2023-02-16T20:41:00.863Z,34.78
2023-02-16T20:43:28.127Z,33.92
2023-02-16T20:45:55.196Z,32.72
2023-02-16T20:48:23.213Z,36.28
2023-02-16T20:50:54.903Z,37.10
2023-02-16T20:53:22.347Z,30.63
2023-02-16T20:55:49.645Z,29.75
2023-02-16T20:58:17.458Z,30.33
2023-02-16T21:00:45.134Z,31.35
2023-02-16T21:03:12.330Z,32.35
2023-02-16T21:05:39.526Z,31.25
2023-02-16T21:08:06.619Z,33.67
2023-02-16T21:10:33.757Z,29.30
2023-02-16T21:13:00.896Z,28.60
2023-02-16T21:15:28.060Z,27.83
2023-02-16T21:17:55.157Z,30.45
2023-02-16T21:20:22.298Z,33.58
2023-02-16T21:22:49.499Z,34.28
2023-02-16T21:25:16.636Z,34.97
2023-02-16T21:27:43.783Z,33.55
2023-02-16T21:30:11.152Z,31.05
2023-02-16T21:32:38.351Z,34.28
2023-02-16T21:35:05.955Z,39.70
2023-02-16T21:37:33.089Z,38.05
2023-02-16T21:40:19.151Z,36.40
2023-02-16T21:42:46.256Z,33.13
2023-02-16T21:45:13.398Z,27.63
2023-02-16T21:48:00.098Z,34.50
2023-02-16T21:50:27.916Z,30.23
2023-02-16T21:52:55.370Z,28.55
2023-02-16T21:55:41.331Z,27.08
2023-02-16T21:58:10.759Z,32.47
2023-02-16T22:00:38.545Z,29.52
2023-02-16T22:03:06.103Z,29.90
2023-02-16T22:05:33.812Z,32.35
2023-02-16T22:08:00.896Z,32.03
2023-02-16T22:10:28.763Z,28.90
2023-02-16T22:12:56.428Z,29.30
2023-02-16T22:15:25.856Z,29.92
2023-02-16T22:17:53.160Z,27.75
2023-02-16T22:20:20.265Z,29.92
2023-02-16T22:22:47.406Z,26.65
2023-02-16T22:25:14.886Z,25.73
2023-02-16T22:27:42.163Z,28.42
2023-02-16T22:30:09.471Z,30.42
2023-02-16T22:32:36.632Z,32.28
2023-02-16T22:35:04.023Z,30.05
2023-02-16T22:37:32.451Z,28.60
2023-02-16T22:39:59.787Z,28.40
2023-02-16T22:42:27.239Z,28.48
2023-02-16T22:44:54.361Z,30.65
2023-02-16T22:47:21.600Z,33.40
2023-02-16T22:49:48.762Z,32.17
2023-02-16T22:52:15.867Z,30.10
2023-02-16T22:54:43.081Z,28.13
2023-02-16T22:57:10.260Z,29.90
2023-02-16T22:59:37.420Z,29.38
2023-02-16T23:02:04.582Z,26.08
2023-02-16T23:04:31.723Z,29.08
2023-02-16T23:06:58.839Z,33.03
2023-02-16T23:09:26.001Z,26.77
2023-02-16T23:11:53.141Z,23.90
2023-02-16T23:14:20.712Z,31.27
2023-02-16T23:16:49.053Z,30.90
2023-02-16T23:19:17.865Z,28.33
2023-02-16T23:21:45.336Z,32.40
2023-02-16T23:24:17.079Z,33.42
2023-02-16T23:26:44.228Z,30.35
2023-02-16T23:29:11.467Z,30.85
2023-02-16T23:31:39.639Z,31.58
2023-02-16T23:34:07.257Z,28.52
2023-02-16T23:36:34.984Z,33.05
2023-02-16T23:39:02.973Z,33.58
2023-02-16T23:41:30.080Z,31.77
2023-02-16T23:43:57.890Z,32.00
2023-02-16T23:46:26.148Z,34.63
2023-02-16T23:48:53.324Z,35.35
2023-02-16T23:51:20.408Z,36.80
2023-02-16T23:53:47.577Z,38.08
2023-02-16T23:56:16.517Z,35.40
2023-02-16T23:58:47.019Z,39.90
